createdAt,value
2022-08-21T00:01:51.433Z,102045.56
2022-08-21T00:04:22.381Z,102043.09
2022-08-21T00:06:50.512Z,102052.84
2022-08-21T00:09:17.153Z,102063.72
2022-08-21T00:11:44.389Z,102093.94
2022-08-21T00:14:12.281Z,102273.56
2022-08-21T00:16:40.117Z,102287.50
2022-08-21T00:19:07.211Z,102307.25
2022-08-21T00:21:35.559Z,102313.34
2022-08-21T00:24:02.337Z,102305.56
2022-08-21T00:26:28.843Z,102306.63
2022-08-21T00:28:55.309Z,102309.94
2022-08-21T00:31:22.746Z,102325.25
2022-08-21T00:33:49.404Z,102325.59
2022-08-21T00:36:16.519Z,102329.78
2022-08-21T00:38:43.041Z,102330.16
2022-08-21T00:41:37.419Z,102333.63
2022-08-21T00:43:58.021Z,102338.53
2022-08-21T00:46:28.181Z,102342.28
2022-08-21T00:48:58.946Z,102346.00
2022-08-21T00:51:51.312Z,102350.56
2022-08-21T00:54:21.418Z,102356.16
2022-08-21T00:56:53.765Z,102364.81
2022-08-21T00:59:24.198Z,102358.03
2022-08-21T01:01:52.372Z,102369.78
2022-08-21T01:04:20.636Z,102360.97
2022-08-21T01:06:47.624Z,102363.59
2022-08-21T01:09:14.707Z,102364.56
2022-08-21T01:11:43.875Z,102359.50
2022-08-21T01:14:13.124Z,102355.91
2022-08-21T01:16:43.324Z,102348.94
2022-08-21T01:19:09.968Z,102350.75
2022-08-21T01:21:38.667Z,102351.78
2022-08-21T01:24:06.236Z,102348.34
2022-08-21T01:26:36.864Z,102343.94
2022-08-21T01:29:08.508Z,102342.97
2022-08-21T01:31:34.975Z,102340.22
2022-08-21T01:34:02.208Z,102345.44
2022-08-21T01:36:28.841Z,102341.94
2022-08-21T01:38:55.788Z,102347.66
2022-08-21T01:41:22.400Z,102346.97
2022-08-21T01:43:49.213Z,102354.72
2022-08-21T01:46:16.076Z,102355.69
2022-08-21T01:48:42.849Z,102359.00
2022-08-21T01:51:09.525Z,102362.78
2022-08-21T01:53:37.697Z,102348.59
2022-08-21T01:56:12.202Z,102360.88
2022-08-21T01:58:41.990Z,102365.25
2022-08-21T02:01:10.392Z,102356.78
2022-08-21T02:03:37.387Z,102350.31
2022-08-21T02:06:06.255Z,102354.81
2022-08-21T02:08:32.988Z,102355.88
2022-08-21T02:10:59.797Z,102369.19
2022-08-21T02:13:26.365Z,102361.06
2022-08-21T02:15:52.882Z,102366.53
2022-08-21T02:18:19.419Z,102357.19
2022-08-21T02:20:48.722Z,102358.16
2022-08-21T02:23:26.859Z,102360.94
2022-08-21T02:25:59.056Z,102366.19
2022-08-21T02:28:26.180Z,102366.78
2022-08-21T02:30:55.904Z,102375.72
2022-08-21T02:33:23.520Z,102378.44
2022-08-21T02:35:50.819Z,102380.97
2022-08-21T02:38:21.395Z,102392.28
2022-08-21T02:40:51.155Z,102380.72
2022-08-21T02:43:19.155Z,102381.16
2022-08-21T02:45:47.524Z,102391.16
2022-08-21T02:48:16.274Z,102389.41
2022-08-21T02:50:47.069Z,102385.97
2022-08-21T02:53:17.233Z,102401.53
2022-08-21T02:55:46.504Z,102394.38
2022-08-21T02:58:13.781Z,102411.06
2022-08-21T03:00:40.780Z,102406.97
2022-08-21T03:03:07.571Z,102397.59
2022-08-21T03:05:36.257Z,102407.66
2022-08-21T03:08:05.957Z,102409.56
2022-08-21T03:10:32.466Z,102404.56
2022-08-21T03:12:59.117Z,102408.81
2022-08-21T03:15:25.971Z,102406.84
2022-08-21T03:17:55.515Z,102409.50
2022-08-21T03:20:24.983Z,102404.44
2022-08-21T03:22:53.275Z,102401.78
2022-08-21T03:25:21.380Z,102406.28
2022-08-21T03:27:54.039Z,102405.59
2022-08-21T03:30:23.475Z,102408.81
2022-08-21T03:32:51.666Z,102398.88
2022-08-21T03:35:19.363Z,102407.78
2022-08-21T03:37:46.928Z,102403.63
2022-08-21T03:40:16.139Z,102399.94
2022-08-21T03:42:43.059Z,102407.91
2022-08-21T03:45:10.895Z,102404.31
2022-08-21T03:47:37.446Z,102393.81
2022-08-21T03:50:05.631Z,102404.56
2022-08-21T03:52:32.104Z,102402.94
2022-08-21T03:54:58.576Z,102398.63
2022-08-21T03:57:25.035Z,102398.44
2022-08-21T03:59:51.496Z,102394.09
2022-08-21T04:02:22.289Z,102391.44
2022-08-21T04:04:48.808Z,102386.25
2022-08-21T04:07:15.275Z,102393.34
2022-08-21T04:09:41.763Z,102398.81
2022-08-21T04:12:08.707Z,102395.31
2022-08-21T04:14:35.166Z,102398.66
2022-08-21T04:17:02.116Z,102394.22
2022-08-21T04:19:28.597Z,102394.19
2022-08-21T04:21:56.466Z,102389.56
2022-08-21T04:24:22.915Z,102393.09
2022-08-21T04:26:49.420Z,102386.94
2022-08-21T04:29:15.896Z,102385.72
2022-08-21T04:31:44.489Z,102399.09
2022-08-21T04:34:10.957Z,102402.47
2022-08-21T04:36:37.448Z,102394.13
2022-08-21T04:39:04.085Z,102398.47
2022-08-21T04:41:31.540Z,102406.50
2022-08-21T04:43:58.081Z,102401.72
2022-08-21T04:46:24.925Z,102406.59
2022-08-21T04:48:51.531Z,102398.47
2022-08-21T04:51:26.388Z,102391.00
2022-08-21T04:53:59.961Z,102382.63
2022-08-21T04:56:32.664Z,102369.97
2022-08-21T04:59:04.628Z,102362.16
2022-08-21T05:01:35.468Z,102370.72
2022-08-21T05:04:05.384Z,102362.66
2022-08-21T05:06:35.772Z,102354.59
2022-08-21T05:09:02.824Z,102351.53
2022-08-21T05:11:31.397Z,102334.75
2022-08-21T05:13:58.119Z,102318.91
2022-08-21T05:16:31.697Z,102300.88
2022-08-21T05:19:04.304Z,102288.03
2022-08-21T05:21:30.800Z,102276.91
2022-08-21T05:23:57.277Z,102266.25
2022-08-21T05:26:23.744Z,102283.66
2022-08-21T05:28:50.490Z,102268.00
2022-08-21T05:31:17.499Z,102254.03
2022-08-21T05:33:44.115Z,102248.59
2022-08-21T05:36:10.616Z,102246.34
2022-08-21T05:38:37.082Z,102229.66
2022-08-21T05:41:03.676Z,102222.41
2022-08-21T05:43:30.292Z,102228.75
2022-08-21T05:45:56.750Z,102210.31
2022-08-21T05:48:25.161Z,102212.25
2022-08-21T05:50:52.658Z,102212.41
2022-08-21T05:53:20.726Z,102192.56
2022-08-21T05:55:49.058Z,102183.06
2022-08-21T05:58:18.612Z,102174.72
2022-08-21T06:00:46.571Z,102165.91
2022-08-21T06:03:19.220Z,102151.97
2022-08-21T06:05:46.646Z,102121.63
2022-08-21T06:08:13.612Z,102110.63
2022-08-21T06:10:40.168Z,102098.44
2022-08-21T06:13:06.661Z,102072.81
2022-08-21T06:15:33.562Z,102050.22
2022-08-21T06:18:00.245Z,102029.84
2022-08-21T06:20:26.892Z,102016.16
2022-08-21T06:22:53.373Z,101991.84
2022-08-21T06:25:20.240Z,101953.41
2022-08-21T06:27:47.322Z,101923.97
2022-08-21T06:30:14.314Z,101900.13
2022-08-21T06:32:40.879Z,101857.56
2022-08-21T06:35:07.848Z,101830.97
2022-08-21T06:37:34.584Z,101795.75
2022-08-21T06:40:01.539Z,101766.09
2022-08-21T06:42:29.023Z,101735.78
2022-08-21T06:44:55.795Z,101702.19
2022-08-21T06:47:22.369Z,101663.03
2022-08-21T06:49:48.816Z,101616.69
2022-08-21T06:52:16.368Z,101589.72
2022-08-21T06:54:43.372Z,101563.38
2022-08-21T06:57:10.250Z,101557.38
2022-08-21T06:59:36.732Z,101542.13
2022-08-21T07:02:04.048Z,101547.00
2022-08-21T07:04:30.935Z,101534.41
2022-08-21T07:06:57.409Z,101527.13
2022-08-21T07:09:24.788Z,101526.84
2022-08-21T07:11:54.460Z,101523.81
2022-08-21T07:14:20.917Z,101521.13
2022-08-21T07:16:48.393Z,101518.19
2022-08-21T07:19:14.912Z,101516.66
2022-08-21T07:21:41.543Z,101518.44
2022-08-21T07:24:08.272Z,101507.56
2022-08-21T07:26:34.716Z,101509.34
2022-08-21T07:29:01.195Z,101508.75
2022-08-21T07:31:29.307Z,101506.75
2022-08-21T07:33:55.967Z,101500.84
2022-08-21T07:36:22.843Z,101494.25
2022-08-21T07:38:52.867Z,101503.50
2022-08-21T07:41:24.365Z,101498.13
2022-08-21T07:43:52.787Z,101496.38
2022-08-21T07:46:20.433Z,101486.53
2022-08-21T07:48:47.201Z,101488.59
2022-08-21T07:51:15.493Z,101495.72
2022-08-21T07:53:42.227Z,101522.09
2022-08-21T07:56:09.373Z,101522.25
2022-08-21T07:58:35.871Z,101513.88
2022-08-21T08:01:02.586Z,101514.47
2022-08-21T08:03:29.464Z,101497.13
2022-08-21T08:05:57.666Z,101483.81
2022-08-21T08:08:24.696Z,101462.56
2022-08-21T08:10:51.781Z,101462.50
2022-08-21T08:13:18.354Z,101440.50
2022-08-21T08:15:44.845Z,101437.69
2022-08-21T08:18:11.621Z,101439.69
2022-08-21T08:20:38.122Z,101442.50
2022-08-21T08:23:04.655Z,101450.88
2022-08-21T08:25:36.163Z,101458.13
2022-08-21T08:28:16.560Z,101445.34
2022-08-21T08:30:45.561Z,101436.41
2022-08-21T08:33:12.181Z,101450.47
2022-08-21T08:35:39.034Z,101440.19
2022-08-21T08:38:06.676Z,101444.34
2022-08-21T08:40:52.804Z,101442.34
2022-08-21T08:43:19.783Z,101433.84
2022-08-21T08:45:51.365Z,101434.94
2022-08-21T08:48:53.126Z,101432.38
2022-08-21T08:51:38.364Z,101428.28
2022-08-21T08:54:22.531Z,101414.94
2022-08-21T08:56:51.321Z,101410.13
2022-08-21T08:59:21.950Z,101398.56
2022-08-21T09:01:48.750Z,101416.63
2022-08-21T09:04:24.837Z,101399.44
2022-08-21T09:07:02.401Z,101411.59
2022-08-21T09:09:57.253Z,101405.63
2022-08-21T09:13:09.991Z,101413.97
2022-08-21T09:15:52.277Z,101404.81
2022-08-21T09:18:46.477Z,101418.56
2022-08-21T09:21:34.009Z,101409.47
2022-08-21T09:24:23.874Z,101400.88
2022-08-21T09:27:10.012Z,101403.09
2022-08-21T09:29:40.852Z,101402.78
2022-08-21T09:32:20.769Z,101404.97
2022-08-21T09:35:04.526Z,101395.22
2022-08-21T09:37:34.630Z,101400.69
2022-08-21T09:40:02.104Z,101402.91
2022-08-21T09:42:34.816Z,101399.00
2022-08-21T09:45:16.710Z,101401.47
2022-08-21T09:47:44.935Z,101396.44
2022-08-21T09:50:14.928Z,101389.03
2022-08-21T09:52:55.460Z,101385.03
2022-08-21T09:56:06.244Z,101399.16
2022-08-21T09:58:38.206Z,101393.09
2022-08-21T10:01:07.187Z,101387.63
2022-08-21T10:03:34.176Z,101385.22
2022-08-21T10:06:06.501Z,101397.09
2022-08-21T10:08:38.084Z,101402.50
2022-08-21T10:11:15.381Z,101393.63
2022-08-21T10:14:09.159Z,101380.34
2022-08-21T10:16:38.584Z,101379.84
2022-08-21T10:19:14.075Z,101368.63
2022-08-21T10:21:54.574Z,101378.91
2022-08-21T10:24:33.294Z,101386.97
2022-08-21T10:27:07.856Z,101398.91
2022-08-21T10:29:48.764Z,101423.75
2022-08-21T10:32:37.420Z,101439.47
2022-08-21T10:35:31.422Z,101464.19
2022-08-21T10:37:57.885Z,101520.31
2022-08-21T10:41:07.416Z,101575.50
2022-08-21T10:44:00.544Z,101572.78
2022-08-21T10:46:26.933Z,101552.59
2022-08-21T10:49:15.625Z,101544.56
2022-08-21T10:52:10.028Z,101510.06
2022-08-21T10:54:49.880Z,101480.56
2022-08-21T10:57:31.938Z,101451.78
2022-08-21T11:00:14.005Z,101431.00
2022-08-21T11:02:47.683Z,101379.34
2022-08-21T11:05:29.849Z,101370.72
2022-08-21T11:08:06.167Z,101337.41
2022-08-21T11:11:00.362Z,101235.00
2022-08-21T11:13:49.814Z,101201.56
2022-08-21T11:16:32.478Z,101075.28
2022-08-21T11:19:17.776Z,101047.72
2022-08-21T11:21:53.328Z,101073.31
2022-08-21T11:24:42.557Z,101013.25
2022-08-21T11:27:16.046Z,101011.94
2022-08-21T11:29:48.768Z,101004.31
2022-08-21T11:32:46.146Z,100973.13
2022-08-21T11:35:47.691Z,101068.41
2022-08-21T11:38:29.066Z,101098.47
2022-08-21T11:41:14.452Z,101037.94
2022-08-21T11:43:54.668Z,101060.59
2022-08-21T11:46:32.221Z,101004.13
2022-08-21T11:49:27.522Z,100910.38
2022-08-21T11:52:18.670Z,101055.69
2022-08-21T11:54:50.202Z,101064.16
2022-08-21T11:57:36.147Z,100955.53
2022-08-21T12:00:11.779Z,100866.06
2022-08-21T12:02:45.095Z,100819.19
2022-08-21T12:05:43.423Z,100835.41
2022-08-21T12:08:13.607Z,101008.31
2022-08-21T12:10:46.917Z,100960.53
2022-08-21T12:13:40.140Z,100851.50
2022-08-21T12:16:15.873Z,100912.28
2022-08-21T12:18:43.927Z,100958.63
2022-08-21T12:21:28.774Z,100957.19
2022-08-21T12:24:17.670Z,101075.97
2022-08-21T12:26:50.265Z,100957.38
2022-08-21T12:29:24.215Z,100844.81
2022-08-21T12:32:02.544Z,100852.63
2022-08-21T12:35:15.373Z,100958.09
2022-08-21T12:38:00.880Z,100889.28
2022-08-21T12:40:32.059Z,100770.41
2022-08-21T12:43:03.988Z,100784.19
2022-08-21T12:45:40.621Z,100678.94
2022-08-21T12:48:32.350Z,100641.31
2022-08-21T12:51:13.250Z,100642.69
2022-08-21T12:53:42.763Z,100739.13
2022-08-21T12:56:12.817Z,100749.53
2022-08-21T12:58:45.687Z,100718.03
2022-08-21T13:01:38.162Z,100720.94
2022-08-21T13:04:11.936Z,100630.47
2022-08-21T13:06:41.208Z,100542.28
2022-08-21T13:09:11.801Z,100610.44
2022-08-21T13:11:40.936Z,100694.00
2022-08-21T13:14:18.380Z,100801.63
2022-08-21T13:16:46.493Z,101033.97
2022-08-21T13:19:23.304Z,101207.06
2022-08-21T13:21:52.000Z,101321.97
2022-08-21T13:24:44.216Z,101286.94
2022-08-21T13:27:31.329Z,101259.75
2022-08-21T13:30:18.939Z,101358.63
2022-08-21T13:32:53.411Z,101431.47
2022-08-21T13:35:24.854Z,101460.97
2022-08-21T13:37:52.804Z,101447.84
2022-08-21T13:40:41.056Z,101386.06
2022-08-21T13:43:14.603Z,101427.22
2022-08-21T13:45:54.228Z,101386.16
2022-08-21T13:48:24.231Z,101209.94
2022-08-21T13:50:51.133Z,101157.63
2022-08-21T13:53:26.657Z,101195.16
2022-08-21T13:55:55.398Z,101126.25
2022-08-21T13:58:46.279Z,101120.78
2022-08-21T14:01:23.830Z,101011.47
2022-08-21T14:03:53.992Z,100974.88
2022-08-21T14:06:24.114Z,100814.03
2022-08-21T14:08:54.483Z,100829.59
2022-08-21T14:11:21.601Z,100833.34
2022-08-21T14:14:03.814Z,100953.25
2022-08-21T14:16:44.528Z,100839.69
2022-08-21T14:19:20.812Z,100856.28
2022-08-21T14:21:47.897Z,100678.75
2022-08-21T14:24:36.689Z,100751.44
2022-08-21T14:27:08.599Z,100994.06
2022-08-21T14:29:42.111Z,101167.75
2022-08-21T14:32:24.602Z,101290.44
2022-08-21T14:34:52.936Z,101410.97
2022-08-21T14:37:22.053Z,101332.28
2022-08-21T14:39:48.542Z,101376.63
2022-08-21T14:42:15.052Z,101278.47
2022-08-21T14:44:41.994Z,101246.47
2022-08-21T14:47:09.621Z,101318.41
2022-08-21T14:49:36.162Z,101374.09
2022-08-21T14:52:02.856Z,101488.50
2022-08-21T14:54:32.325Z,101507.16
2022-08-21T14:57:06.312Z,101531.13
2022-08-21T14:59:33.975Z,101563.56
2022-08-21T15:02:01.077Z,101561.53
2022-08-21T15:04:27.654Z,101520.94
2022-08-21T15:06:54.154Z,101273.56
2022-08-21T15:09:20.612Z,101021.88
2022-08-21T15:11:47.203Z,101045.19
2022-08-21T15:14:20.213Z,100989.00
2022-08-21T15:16:47.177Z,101139.13
2022-08-21T15:19:13.666Z,101132.91
2022-08-21T15:21:40.156Z,101189.38
2022-08-21T15:24:06.793Z,101141.84
2022-08-21T15:26:33.499Z,101254.16
2022-08-21T15:29:00.709Z,101292.94
2022-08-21T15:31:28.496Z,101404.28
2022-08-21T15:33:55.027Z,101503.06
2022-08-21T15:36:21.701Z,101534.41
2022-08-21T15:38:48.186Z,101598.69
2022-08-21T15:41:15.056Z,101612.09
2022-08-21T15:43:53.511Z,101619.81
2022-08-21T15:46:21.678Z,101637.63
2022-08-21T15:48:48.554Z,101637.44
2022-08-21T15:51:17.602Z,101596.06
2022-08-21T15:53:45.205Z,101565.13
2022-08-21T15:56:25.689Z,101569.63
2022-08-21T15:58:54.219Z,101523.75
2022-08-21T16:01:24.622Z,101454.22
2022-08-21T16:03:54.832Z,101352.31
2022-08-21T16:06:38.550Z,101377.88
2022-08-21T16:09:08.921Z,101425.72
2022-08-21T16:11:35.837Z,101313.72
2022-08-21T16:14:02.324Z,101301.19
2022-08-21T16:16:29.988Z,101219.69
2022-08-21T16:18:58.288Z,101218.34
2022-08-21T16:21:24.940Z,101225.56
2022-08-21T16:23:51.521Z,101335.63
2022-08-21T16:26:18.439Z,101437.09
2022-08-21T16:28:46.414Z,101532.78
2022-08-21T16:31:15.366Z,101589.66
2022-08-21T16:33:50.591Z,101628.97
2022-08-21T16:36:20.806Z,101621.28
2022-08-21T16:38:48.405Z,101604.34
2022-08-21T16:41:18.203Z,101497.09
2022-08-21T16:43:49.958Z,101511.09
2022-08-21T16:46:17.763Z,101530.38
2022-08-21T16:48:47.098Z,101539.91
2022-08-21T16:51:14.991Z,101594.09
2022-08-21T16:53:43.007Z,101572.75
2022-08-21T16:56:12.100Z,101571.25
2022-08-21T16:58:42.533Z,101668.19
2022-08-21T17:01:12.766Z,101702.44
2022-08-21T17:03:42.293Z,101697.69
2022-08-21T17:06:10.376Z,101683.00
2022-08-21T17:08:37.729Z,101684.81
2022-08-21T17:11:08.264Z,101671.44
2022-08-21T17:13:35.099Z,101671.19
2022-08-21T17:16:01.871Z,101679.44
2022-08-21T17:18:28.534Z,101691.31
2022-08-21T17:20:55.151Z,101687.78
2022-08-21T17:23:21.997Z,101682.06
2022-08-21T17:25:51.033Z,101688.19
2022-08-21T17:28:23.421Z,101676.63
2022-08-21T17:30:51.336Z,101682.44
2022-08-21T17:33:19.515Z,101688.66
2022-08-21T17:35:46.019Z,101692.53
2022-08-21T17:38:14.950Z,101689.00
2022-08-21T17:40:41.695Z,101690.66
2022-08-21T17:43:11.662Z,101692.41
2022-08-21T17:45:40.217Z,101686.41
2022-08-21T17:48:07.075Z,101696.91
2022-08-21T17:50:33.962Z,101686.97
2022-08-21T17:53:00.633Z,101686.97
2022-08-21T17:55:28.342Z,101689.25
2022-08-21T17:57:56.280Z,101689.66
2022-08-21T18:00:25.489Z,101680.38
2022-08-21T18:03:01.848Z,101682.38
2022-08-21T18:05:29.369Z,101682.38
2022-08-21T18:07:57.757Z,101679.59
2022-08-21T18:10:24.952Z,101679.31
2022-08-21T18:12:51.907Z,101690.88
2022-08-21T18:15:20.245Z,101683.47
2022-08-21T18:17:49.454Z,101676.38
2022-08-21T18:20:18.837Z,101679.03
2022-08-21T18:22:45.728Z,101683.19
2022-08-21T18:25:12.927Z,101669.06
2022-08-21T18:27:42.599Z,101671.06
2022-08-21T18:30:10.382Z,101660.97
2022-08-21T18:32:37.138Z,101662.50
2022-08-21T18:35:06.213Z,101651.25
2022-08-21T18:37:32.894Z,101637.47
2022-08-21T18:39:59.789Z,101629.31
2022-08-21T18:42:29.012Z,101627.56
2022-08-21T18:45:00.828Z,101606.41
2022-08-21T18:47:37.318Z,101590.25
2022-08-21T18:52:54.934Z,101596.53
2022-08-21T18:55:23.042Z,101586.88
2022-08-21T18:57:51.589Z,101587.13
2022-08-21T19:00:24.292Z,101590.81
2022-08-21T19:02:51.364Z,101588.03
2022-08-21T19:05:19.508Z,101581.94
2022-08-21T19:07:47.028Z,101581.84
2022-08-21T19:13:05.080Z,101577.63
2022-08-21T19:15:36.171Z,101588.56
2022-08-21T19:18:03.619Z,101574.13
2022-08-21T19:20:35.023Z,101565.22
2022-08-21T19:23:02.637Z,101553.47
2022-08-21T19:25:33.268Z,101529.13
2022-08-21T19:28:03.293Z,101527.94
2022-08-21T19:30:31.076Z,101517.84
2022-08-21T19:32:57.921Z,101512.34
2022-08-21T19:35:26.832Z,101492.78
2022-08-21T19:37:53.530Z,101496.41
2022-08-21T19:40:22.408Z,101481.09
2022-08-21T19:42:49.188Z,101477.78
2022-08-21T19:45:15.750Z,101461.66
2022-08-21T19:47:46.687Z,101454.06
2022-08-21T19:50:17.843Z,101450.50
2022-08-21T19:52:51.499Z,101446.63
2022-08-21T19:55:19.263Z,101439.19
2022-08-21T19:57:46.093Z,101442.41
2022-08-21T20:00:13.436Z,101437.44
2022-08-21T20:02:48.081Z,101425.72
2022-08-21T20:08:04.111Z,101397.22
2022-08-21T20:10:31.110Z,101381.28
2022-08-21T20:12:57.973Z,101376.34
2022-08-21T20:15:24.795Z,101378.75
2022-08-21T20:17:54.645Z,101381.72
2022-08-21T20:20:21.376Z,101375.63
2022-08-21T20:22:49.876Z,101370.75
2022-08-21T20:25:16.551Z,101375.09
2022-08-21T20:27:48.016Z,101374.63
2022-08-21T20:30:15.587Z,101372.22
2022-08-21T20:32:49.288Z,101377.28
2022-08-21T20:35:16.009Z,101379.44
2022-08-21T20:37:42.667Z,101376.06
2022-08-21T20:40:12.583Z,101381.56
2022-08-21T20:42:49.901Z,101380.97
2022-08-21T20:45:22.386Z,101381.88
2022-08-21T20:47:52.664Z,101372.28
2022-08-21T20:50:24.754Z,101376.53
2022-08-21T20:52:53.888Z,101380.31
2022-08-21T20:55:29.270Z,101360.34
2022-08-21T20:58:12.660Z,101378.38
2022-08-21T21:00:42.117Z,101380.06
2022-08-21T21:03:30.250Z,101377.25
2022-08-21T21:06:09.332Z,101390.16
2022-08-21T21:08:46.697Z,101385.28
2022-08-21T21:11:17.820Z,101390.50
2022-08-21T21:13:52.779Z,101389.72
2022-08-21T21:16:33.053Z,101394.09
2022-08-21T21:19:20.926Z,101398.94
2022-08-21T21:21:55.663Z,101412.41
2022-08-21T21:24:43.151Z,101418.34
2022-08-21T21:27:20.078Z,101420.50
2022-08-21T21:29:58.724Z,101427.03
2022-08-21T21:32:27.970Z,101428.69
2022-08-21T21:34:54.636Z,101443.13
2022-08-21T21:37:31.776Z,101462.66
2022-08-21T21:40:19.177Z,101486.66
2022-08-21T21:42:49.278Z,101508.31
2022-08-21T21:45:23.276Z,101527.34
2022-08-21T21:48:09.557Z,101555.59
2022-08-21T21:51:00.839Z,101582.34
2022-08-21T21:54:09.440Z,101614.03
2022-08-21T21:57:19.405Z,101644.41
2022-08-21T22:00:01.580Z,101686.41
2022-08-21T22:03:01.010Z,101726.97
2022-08-21T22:05:56.274Z,101752.25
2022-08-21T22:08:39.427Z,101773.97
2022-08-21T22:11:24.510Z,101793.47
2022-08-21T22:14:13.519Z,101815.34
2022-08-21T22:16:41.558Z,101836.00
2022-08-21T22:19:08.929Z,101861.88
2022-08-21T22:21:47.253Z,101881.16
2022-08-21T22:24:24.885Z,101883.75
2022-08-21T22:26:59.592Z,101893.53
2022-08-21T22:29:49.332Z,101902.19
2022-08-21T22:32:45.659Z,101914.38
2022-08-21T22:35:24.235Z,101916.75
2022-08-21T22:37:51.961Z,101939.63
2022-08-21T22:40:27.780Z,101959.88
2022-08-21T22:43:16.412Z,101957.19
2022-08-21T22:46:04.045Z,101959.78
2022-08-21T22:48:36.399Z,101970.38
2022-08-21T22:51:30.029Z,101969.59
2022-08-21T22:54:00.175Z,101966.41
2022-08-21T22:56:45.945Z,101971.94
2022-08-21T22:59:29.424Z,101977.78
2022-08-21T23:02:00.251Z,101977.41
2022-08-21T23:04:27.576Z,101981.22
2022-08-21T23:07:00.316Z,102169.06
2022-08-21T23:09:27.451Z,102182.53
2022-08-21T23:11:56.608Z,102190.75
2022-08-21T23:14:24.900Z,102204.47
2022-08-21T23:17:10.181Z,102209.22
2022-08-21T23:19:59.545Z,102218.00
2022-08-21T23:22:39.104Z,102226.38
2022-08-21T23:25:41.438Z,102228.44
2022-08-21T23:28:25.936Z,102234.50
2022-08-21T23:31:11.629Z,102243.38
2022-08-21T23:34:06.087Z,102251.25
2022-08-21T23:37:16.169Z,102254.59
2022-08-21T23:40:12.979Z,102259.13
2022-08-21T23:42:59.405Z,102262.06
2022-08-21T23:45:40.881Z,102290.16
2022-08-21T23:48:52.748Z,102285.31
2022-08-21T23:51:34.099Z,102288.41
2022-08-21T23:54:34.947Z,102293.75
2022-08-21T23:57:13.467Z,102286.75
